Time;durP1;ratioP1;P1;durP2;ratioP2;P2;SDS_P1;SDS_P2;PMS_P1;PMS_P2;Temp;Humidity;BMP_temperature;BMP_pressure;BME280_temperature;BME280_humidity;BME280_pressure;Samples;Min_cycle;Max_cycle;Signal;HPM_P1;HPM_P2
2022/05/28 00:01:29;;;;;;;11.60;3.08;;;14.90;74.30;;;;;;5034763;28;20826;-68
2022/05/28 00:03:57;;;;;;;11.35;3.10;;;14.90;74.40;;;;;;5037789;28;20021;-67
2022/05/28 00:06:24;;;;;;;10.18;2.80;;;14.90;74.50;;;;;;5034174;28;20116;-69
2022/05/28 00:08:51;;;;;;;11.25;3.28;;;14.80;75.50;;;;;;5039893;28;20097;-68
2022/05/28 00:11:30;;;;;;;13.85;2.90;;;14.80;74.60;;;;;;5037958;28;20041;-68
2022/05/28 00:13:57;;;;;;;10.55;2.90;;;14.80;74.50;;;;;;5032060;28;20051;-68
2022/05/28 00:16:22;;;;;;;7.82;2.85;;;14.80;74.40;;;;;;5032290;28;20041;-68
2022/05/28 00:18:54;;;;;;;11.00;3.20;;;14.70;74.10;;;;;;5039499;28;20040;-68
2022/05/28 00:21:22;;;;;;;14.98;3.70;;;14.70;74.10;;;;;;5045151;28;20021;-68
2022/05/28 00:23:48;;;;;;;11.27;3.10;;;14.60;74.10;;;;;;5031775;28;20029;-68
2022/05/28 00:26:14;;;;;;;10.95;3.22;;;14.50;74.20;;;;;;5032411;28;20104;-68
2022/05/28 00:28:40;;;;;;;9.68;3.08;;;14.50;74.50;;;;;;5037920;28;20426;-68
2022/05/28 00:31:06;;;;;;;11.90;3.00;;;14.40;74.80;;;;;;5033771;28;20029;-68
2022/05/28 00:33:32;;;;;;;9.23;2.90;;;14.40;74.80;;;;;;5046466;28;20408;-68
2022/05/28 00:36:00;;;;;;;13.48;3.30;;;14.40;74.60;;;;;;5045168;28;20075;-68
2022/05/28 00:38:26;;;;;;;10.23;3.03;;;14.40;74.70;;;;;;5036576;28;20546;-68
2022/05/28 00:40:57;;;;;;;9.85;3.60;;;14.40;74.70;;;;;;5031096;28;20021;-68
2022/05/28 00:43:24;;;;;;;9.65;3.10;;;14.30;74.60;;;;;;5032334;28;20053;-68
2022/05/28 00:45:57;;;;;;;13.48;3.20;;;14.30;74.60;;;;;;5039304;28;20473;-67
2022/05/28 00:48:27;;;;;;;13.27;3.55;;;14.30;74.50;;;;;;5045490;28;20040;-68
2022/05/28 00:50:53;;;;;;;11.70;3.07;;;14.30;75.40;;;;;;5038562;28;20116;-68
2022/05/28 00:53:19;;;;;;;13.18;3.65;;;14.20;74.50;;;;;;5036769;28;20112;-68
2022/05/28 00:55:46;;;;;;;14.02;3.50;;;14.20;74.50;;;;;;5031884;28;20049;-68
2022/05/28 00:58:12;;;;;;;10.52;3.25;;;14.20;74.60;;;;;;5038015;28;20463;-68
2022/05/28 01:00:38;;;;;;;10.25;3.05;;;14.20;74.60;;;;;;5029928;28;20022;-68
2022/05/28 01:03:32;;;;;;;10.30;3.40;;;14.20;74.60;;;;;;5045799;28;20033;-68
2022/05/28 01:06:06;;;;;;;8.05;2.90;;;14.20;74.70;;;;;;5032170;28;20088;-68
2022/05/28 01:08:43;;;;;;;8.10;3.15;;;14.10;74.10;;;;;;5033333;28;20136;-68
2022/05/28 01:11:19;;;;;;;11.30;3.20;;;14.10;73.90;;;;;;5033604;28;20107;-68
2022/05/28 01:13:51;;;;;;;11.82;2.75;;;14.00;74.00;;;;;;5032267;28;20116;-68
2022/05/28 01:16:31;;;;;;;8.27;2.83;;;13.90;73.90;;;;;;5032777;28;20040;-68
2022/05/28 01:19:14;;;;;;;7.80;2.55;;;13.80;73.90;;;;;;5037837;28;20018;-68
2022/05/28 01:21:59;;;;;;;9.57;2.90;;;13.80;74.10;;;;;;5034501;28;20037;-68
2022/05/28 01:24:31;;;;;;;7.00;2.85;;;13.80;74.10;;;;;;5049088;28;20029;-68
2022/05/28 01:27:05;;;;;;;9.35;2.65;;;13.80;74.00;;;;;;5041841;28;20025;-68
2022/05/28 01:29:38;;;;;;;7.28;2.63;;;13.80;73.60;;;;;;5037858;28;20029;-68
2022/05/28 01:32:05;;;;;;;10.82;2.70;;;13.70;73.40;;;;;;5035138;28;20075;-68
2022/05/28 01:34:32;;;;;;;14.05;3.00;;;13.70;73.50;;;;;;5037682;28;20040;-68
2022/05/28 01:36:59;;;;;;;7.63;2.90;;;13.60;73.60;;;;;;5050176;28;20037;-68
2022/05/28 01:39:26;;;;;;;8.45;2.50;;;13.60;73.90;;;;;;5032313;28;20040;-68
2022/05/28 01:41:54;;;;;;;6.47;2.80;;;13.60;73.80;;;;;;5047073;28;20036;-68
2022/05/28 01:44:21;;;;;;;11.23;2.80;;;13.50;73.70;;;;;;5038660;28;20033;-68
2022/05/28 01:46:47;;;;;;;8.40;2.70;;;13.50;73.50;;;;;;5039828;28;20439;-68
2022/05/28 01:49:16;;;;;;;10.73;2.80;;;13.40;73.20;;;;;;5045921;28;20047;-68
2022/05/28 01:51:55;;;;;;;6.80;2.60;;;13.40;73.10;;;;;;5034316;28;20029;-68
2022/05/28 01:54:25;;;;;;;6.55;2.90;;;13.40;73.00;;;;;;5048534;28;20021;-68
2022/05/28 01:56:53;;;;;;;10.25;3.28;;;13.40;73.00;;;;;;5038583;28;20074;-68
2022/05/28 01:59:25;;;;;;;15.10;3.83;;;13.40;73.30;;;;;;5039417;28;20029;-68
2022/05/28 02:01:52;;;;;;;14.50;3.40;;;13.30;73.80;;;;;;5043715;28;20103;-68
2022/05/28 02:04:18;;;;;;;10.65;3.97;;;13.40;73.80;;;;;;5046856;28;20151;-68
2022/05/28 02:06:44;;;;;;;11.13;3.42;;;13.30;73.70;;;;;;5039235;28;20108;-68
2022/05/28 02:09:14;;;;;;;10.00;3.28;;;13.20;73.80;;;;;;5036433;28;20448;-67
2022/05/28 02:11:51;;;;;;;11.55;3.45;;;13.20;73.90;;;;;;5035042;28;20037;-68
2022/05/28 02:14:29;;;;;;;9.48;3.10;;;13.20;73.90;;;;;;5035541;28;20030;-67
2022/05/28 02:17:14;;;;;;;9.95;3.20;;;13.20;74.00;;;;;;5035066;28;20052;-67
2022/05/28 02:19:43;;;;;;;7.72;2.85;;;13.20;74.20;;;;;;5040290;28;20497;-69
2022/05/28 02:22:25;;;;;;;9.88;3.03;;;13.20;73.80;;;;;;5034433;28;20468;-69
2022/05/28 02:24:59;;;;;;;8.82;3.20;;;13.10;74.00;;;;;;5048704;28;20075;-69
2022/05/28 02:27:27;;;;;;;9.75;3.30;;;13.10;74.30;;;;;;5049305;28;20431;-69
2022/05/28 02:29:53;;;;;;;8.30;2.80;;;13.10;74.40;;;;;;5038485;28;20032;-68
2022/05/28 02:32:21;;;;;;;8.38;2.80;;;13.10;74.30;;;;;;5045267;28;20033;-69
2022/05/28 02:34:47;;;;;;;6.72;2.50;;;13.10;74.20;;;;;;5042203;28;20064;-68
2022/05/28 02:37:15;;;;;;;9.65;2.53;;;13.00;74.00;;;;;;5039312;28;20453;-68
2022/05/28 02:39:41;;;;;;;7.18;2.55;;;13.00;73.90;;;;;;5046405;28;20112;-69
2022/05/28 02:42:07;;;;;;;5.72;2.58;;;13.00;74.20;;;;;;5033120;28;20112;-69
2022/05/28 02:44:33;;;;;;;8.38;3.10;;;13.00;73.80;;;;;;5038016;28;20026;-68
2022/05/28 02:46:59;;;;;;;11.07;3.10;;;13.00;74.60;;;;;;5033768;28;20033;-69
2022/05/28 02:49:25;;;;;;;9.13;3.53;;;13.00;74.60;;;;;;5033989;28;20108;-69
2022/05/28 02:51:52;;;;;;;6.93;3.25;;;13.00;74.80;;;;;;5038997;28;20029;-68
2022/05/28 02:54:19;;;;;;;6.72;3.50;;;13.00;74.90;;;;;;5031254;28;20056;-69
2022/05/28 02:56:45;;;;;;;9.48;3.38;;;13.00;75.00;;;;;;5035067;28;20049;-69
2022/05/28 02:59:11;;;;;;;8.57;3.35;;;12.90;74.30;;;;;;5039758;28;20025;-68
2022/05/28 03:01:36;;;;;;;8.65;3.85;;;12.90;75.20;;;;;;5031115;28;20041;-68
2022/05/28 03:04:06;;;;;;;10.73;3.97;;;12.90;75.30;;;;;;5046894;28;20024;-69
2022/05/28 03:06:31;;;;;;;11.18;4.03;;;12.90;75.50;;;;;;5048942;28;20032;-69
2022/05/28 03:08:57;;;;;;;11.32;3.53;;;12.90;75.60;;;;;;5032722;28;20018;-68
2022/05/28 03:11:23;;;;;;;12.05;3.70;;;12.90;75.50;;;;;;5034089;28;20041;-69
2022/05/28 03:13:49;;;;;;;14.30;3.90;;;12.90;75.60;;;;;;5033220;28;20024;-68
2022/05/28 03:16:15;;;;;;;13.07;3.55;;;12.90;75.70;;;;;;5032530;28;20037;-69
2022/05/28 03:18:41;;;;;;;17.27;3.90;;;12.90;75.70;;;;;;5030827;28;20044;-68
2022/05/28 03:21:07;;;;;;;16.80;4.72;;;12.80;75.40;;;;;;5044134;28;20453;-68
2022/05/28 03:23:33;;;;;;;14.82;4.25;;;12.80;75.40;;;;;;5034955;28;20060;-68
2022/05/28 03:26:28;;;;;;;16.48;4.75;;;12.80;75.40;;;;;;5045725;28;20441;-69
2022/05/28 03:28:56;;;;;;;8.70;4.07;;;12.80;75.70;;;;;;5039596;28;20032;-68
2022/05/28 03:31:24;;;;;;;9.10;4.00;;;12.80;76.60;;;;;;5037723;28;20032;-68
2022/05/28 03:33:50;;;;;;;13.93;3.83;;;12.80;75.80;;;;;;5032180;28;20059;-68
2022/05/28 03:36:17;;;;;;;7.43;3.40;;;12.80;75.80;;;;;;5047591;28;20219;-69
2022/05/28 03:38:43;;;;;;;17.63;3.65;;;12.70;75.80;;;;;;5033884;28;20049;-69
2022/05/28 03:41:09;;;;;;;9.60;3.08;;;12.70;75.80;;;;;;5032067;28;20025;-68
2022/05/28 03:43:36;;;;;;;6.10;2.80;;;12.70;75.80;;;;;;5033355;28;20115;-69
2022/05/28 03:46:02;;;;;;;8.48;2.80;;;12.60;75.60;;;;;;5034683;28;20029;-68
2022/05/28 03:48:29;;;;;;;4.63;2.50;;;12.60;75.60;;;;;;5033353;28;20751;-68
2022/05/28 03:50:55;;;;;;;5.55;2.35;;;12.60;75.60;;;;;;5034066;28;20025;-68
2022/05/28 03:53:21;;;;;;;6.63;2.50;;;12.60;75.50;;;;;;5035016;28;20112;-68
2022/05/28 03:55:47;;;;;;;6.22;2.50;;;12.50;75.50;;;;;;5035067;28;20149;-69
2022/05/28 03:58:13;;;;;;;5.03;2.55;;;12.50;75.50;;;;;;5045688;28;20128;-69
2022/05/28 04:00:40;;;;;;;3.95;2.30;;;12.40;75.40;;;;;;5047261;28;20395;-68
2022/05/28 04:03:06;;;;;;;5.72;2.58;;;12.40;75.30;;;;;;5035946;28;20032;-69
2022/05/28 04:05:32;;;;;;;7.00;3.13;;;12.40;75.30;;;;;;5035885;28;20523;-68
2022/05/28 04:07:57;;;;;;;9.00;3.28;;;12.40;75.40;;;;;;5038460;28;20025;-69
2022/05/28 04:10:24;;;;;;;9.77;3.30;;;12.40;75.60;;;;;;5036067;28;20048;-69
2022/05/28 04:12:50;;;;;;;11.48;3.90;;;12.40;75.90;;;;;;5047336;28;20025;-69
2022/05/28 04:15:16;;;;;;;20.48;3.90;;;12.40;76.10;;;;;;5030312;28;20041;-68
2022/05/28 04:17:42;;;;;;;9.10;4.00;;;12.40;76.30;;;;;;5034579;28;20591;-69
2022/05/28 04:20:10;;;;;;;13.23;3.90;;;12.40;76.50;;;;;;5040749;28;20029;-68
2022/05/28 04:22:36;;;;;;;18.65;3.70;;;12.40;76.60;;;;;;5032265;28;20037;-68
2022/05/28 04:25:01;;;;;;;21.00;3.75;;;12.30;76.60;;;;;;5032635;28;20029;-69
2022/05/28 04:27:27;;;;;;;11.18;3.58;;;12.30;76.70;;;;;;5040533;28;20036;-68
2022/05/28 04:29:53;;;;;;;9.07;3.65;;;12.30;76.70;;;;;;5044668;28;20033;-69
2022/05/28 04:32:18;;;;;;;11.52;3.25;;;12.30;76.90;;;;;;5036669;28;20040;-69
2022/05/28 04:34:44;;;;;;;6.13;2.90;;;12.40;77.00;;;;;;5040391;28;20111;-69
2022/05/28 04:37:10;;;;;;;9.57;3.10;;;12.30;76.80;;;;;;5039698;28;20041;-68
2022/05/28 04:39:35;;;;;;;6.88;2.60;;;12.40;76.70;;;;;;5033387;28;20028;-69
2022/05/28 04:42:01;;;;;;;4.72;2.70;;;12.30;76.50;;;;;;5033393;28;20045;-68
2022/05/28 04:44:27;;;;;;;4.60;2.70;;;12.30;76.40;;;;;;5036494;28;20500;-69
2022/05/28 04:46:52;;;;;;;4.38;2.55;;;12.30;76.20;;;;;;5040460;28;20132;-69
2022/05/28 04:49:18;;;;;;;4.50;2.72;;;12.30;75.90;;;;;;5031648;28;20113;-68
2022/05/28 04:51:44;;;;;;;6.47;2.90;;;12.30;75.70;;;;;;5034671;28;20120;-68
2022/05/28 04:54:09;;;;;;;6.28;2.83;;;12.30;75.60;;;;;;5032894;28;20037;-68
2022/05/28 04:56:35;;;;;;;4.90;2.67;;;12.30;75.50;;;;;;5038102;28;20052;-68
2022/05/28 04:59:01;;;;;;;7.07;2.65;;;12.30;75.50;;;;;;5038138;28;20025;-69
2022/05/28 05:01:27;;;;;;;3.97;2.28;;;12.20;75.80;;;;;;5036337;28;20104;-68
2022/05/28 05:03:53;;;;;;;5.05;2.17;;;12.20;76.00;;;;;;5041070;28;20033;-68
2022/05/28 05:06:19;;;;;;;4.80;2.28;;;12.20;76.10;;;;;;5048793;28;20032;-69
2022/05/28 05:08:45;;;;;;;4.47;2.30;;;12.30;76.20;;;;;;5032681;28;20112;-69
2022/05/28 05:11:12;;;;;;;3.70;2.20;;;12.30;76.20;;;;;;5027644;28;20040;-69
2022/05/28 05:13:38;;;;;;;4.05;2.45;;;12.30;76.20;;;;;;5032445;28;20068;-69
2022/05/28 05:16:13;;;;;;;6.95;3.00;;;12.40;77.40;;;;;;5029372;28;20029;-68
2022/05/28 05:18:38;;;;;;;6.10;2.60;;;12.40;76.60;;;;;;5029909;28;20029;-68
2022/05/28 05:21:04;;;;;;;4.30;2.50;;;12.50;76.70;;;;;;5032918;28;20480;-69
2022/05/28 05:23:30;;;;;;;5.60;3.00;;;12.50;76.80;;;;;;5030758;28;20045;-68
2022/05/28 05:25:55;;;;;;;5.28;2.90;;;12.50;76.90;;;;;;5033249;28;20029;-68
2022/05/28 05:28:21;;;;;;;6.30;3.20;;;12.60;77.00;;;;;;5043389;28;20042;-69
2022/05/28 05:30:46;;;;;;;6.22;2.90;;;12.60;77.30;;;;;;5032319;28;20040;-68
2022/05/28 05:33:12;;;;;;;5.45;3.13;;;12.70;78.40;;;;;;5042817;28;20025;-68
2022/05/28 05:35:38;;;;;;;7.15;2.92;;;12.80;77.70;;;;;;5036513;28;20024;-69
2022/05/28 05:38:07;;;;;;;10.05;3.20;;;12.90;78.00;;;;;;5038349;28;20031;-69
2022/05/28 05:40:37;;;;;;;5.93;3.08;;;12.90;78.30;;;;;;5032005;28;20579;-69
2022/05/28 05:43:04;;;;;;;6.70;3.35;;;13.10;78.60;;;;;;5027714;28;20532;-69
2022/05/28 05:45:30;;;;;;;11.25;3.90;;;13.20;78.80;;;;;;5038964;28;20033;-69
2022/05/28 05:47:55;;;;;;;12.13;4.13;;;13.30;79.70;;;;;;5038868;28;20032;-69
2022/05/28 05:50:21;;;;;;;9.80;3.95;;;13.50;79.50;;;;;;5041221;28;20041;-69
2022/05/28 05:52:47;;;;;;;14.52;4.35;;;13.70;79.70;;;;;;5040524;28;20083;-69
2022/05/28 05:55:13;;;;;;;14.70;4.22;;;13.80;80.20;;;;;;5031605;28;20472;-70
2022/05/28 05:57:39;;;;;;;13.57;4.10;;;14.00;80.50;;;;;;5036136;28;20049;-69
2022/05/28 06:00:06;;;;;;;12.88;3.72;;;14.10;80.50;;;;;;5044944;28;20029;-70
2022/05/28 06:02:32;;;;;;;14.40;3.88;;;14.30;80.00;;;;;;5033197;28;20024;-69
2022/05/28 06:04:58;;;;;;;15.70;4.05;;;14.50;79.70;;;;;;5045382;28;20029;-69
2022/05/28 06:07:24;;;;;;;13.45;4.00;;;14.60;79.50;;;;;;5045812;28;20116;-69
2022/05/28 06:09:50;;;;;;;17.02;4.13;;;14.80;79.10;;;;;;5045479;28;20041;-69
2022/05/28 06:12:16;;;;;;;18.70;4.43;;;15.00;78.90;;;;;;5048638;28;20082;-68
2022/05/28 06:14:41;;;;;;;15.35;3.90;;;15.20;78.90;;;;;;5035047;28;20030;-68
2022/05/28 06:17:07;;;;;;;20.25;4.25;;;15.40;79.30;;;;;;5034222;28;20037;-68
2022/05/28 06:19:33;;;;;;;18.80;4.32;;;15.50;78.90;;;;;;5036340;28;20447;-69
2022/05/28 06:22:00;;;;;;;12.20;3.75;;;15.70;78.10;;;;;;5046546;28;20211;-68
2022/05/28 06:24:26;;;;;;;17.48;4.38;;;15.90;77.70;;;;;;5048822;28;20021;-68
2022/05/28 06:26:53;;;;;;;17.85;3.80;;;16.00;76.90;;;;;;5049882;28;20462;-68
2022/05/28 06:29:19;;;;;;;21.27;4.38;;;16.20;76.60;;;;;;5039116;28;20113;-68
2022/05/28 06:31:44;;;;;;;17.80;4.05;;;16.40;76.10;;;;;;5042137;28;20116;-68
2022/05/28 06:34:10;;;;;;;17.15;4.00;;;16.60;74.90;;;;;;5047643;28;20021;-69
2022/05/28 06:36:36;;;;;;;15.00;4.43;;;17.00;72.10;;;;;;5049642;28;20483;-68
2022/05/28 06:39:02;;;;;;;16.90;3.83;;;17.00;72.70;;;;;;5046809;28;20029;-68
2022/05/28 06:41:27;;;;;;;16.85;3.83;;;17.30;71.80;;;;;;5045150;28;20484;-68
2022/05/28 06:43:53;;;;;;;13.95;4.07;;;17.80;70.00;;;;;;5040253;28;20025;-67
2022/05/28 06:46:19;;;;;;;14.18;3.33;;;18.70;66.60;;;;;;5044127;28;20037;-68
2022/05/28 06:48:45;;;;;;;18.00;3.50;;;20.50;57.90;;;;;;5037699;28;20064;-68
2022/05/28 06:51:11;;;;;;;22.42;3.63;;;20.60;58.20;;;;;;5044558;28;20094;-69
2022/05/28 06:53:42;;;;;;;16.40;4.40;;;21.60;53.70;;;;;;5036976;28;20460;-68
2022/05/28 06:56:10;;;;;;;18.95;6.38;;;22.50;50.00;;;;;;5037893;28;20049;-69
2022/05/28 06:58:37;;;;;;;20.33;4.57;;;23.20;47.60;;;;;;5042694;28;20059;-68
2022/05/28 07:01:04;;;;;;;17.02;4.82;;;23.70;46.10;;;;;;5034066;28;20025;-69
2022/05/28 07:03:30;;;;;;;14.82;3.80;;;24.10;44.50;;;;;;5045674;28;20037;-67
2022/05/28 07:05:56;;;;;;;16.48;4.30;;;24.40;43.40;;;;;;5032705;28;20029;-66
2022/05/28 07:08:22;;;;;;;21.17;4.40;;;24.80;42.10;;;;;;5041533;28;20051;-68
2022/05/28 07:10:51;;;;;;;22.80;3.92;;;25.10;41.70;;;;;;5041498;28;20112;-70
2022/05/28 07:13:18;;;;;;;18.42;3.80;;;25.80;39.40;;;;;;5043233;28;20082;-68
2022/05/28 07:15:44;;;;;;;19.23;4.38;;;26.10;38.70;;;;;;5041252;28;20059;-68
2022/05/28 07:18:10;;;;;;;21.80;4.45;;;26.10;39.40;;;;;;5056878;28;20107;-68
2022/05/28 07:20:36;;;;;;;18.38;3.97;;;26.50;39.00;;;;;;5049930;28;20060;-68
2022/05/28 07:23:15;;;;;;;17.42;4.15;;;26.60;38.30;;;;;;5040119;28;20090;-68
2022/05/28 07:25:41;;;;;;;19.42;4.22;;;26.50;37.90;;;;;;5034011;28;20036;-68
2022/05/28 07:28:27;;;;;;;21.23;4.32;;;26.10;38.70;;;;;;5046585;28;20100;-68
2022/05/28 07:30:53;;;;;;;18.27;4.55;;;25.70;39.40;;;;;;5037286;28;20034;-68
2022/05/28 07:33:19;;;;;;;19.67;4.20;;;25.20;40.10;;;;;;5031231;28;20100;-68
2022/05/28 07:35:45;;;;;;;19.05;4.82;;;24.70;42.30;;;;;;5029912;28;20122;-68
2022/05/28 07:38:11;;;;;;;16.70;4.47;;;23.60;45.10;;;;;;5028878;28;20140;-68
2022/05/28 07:40:37;;;;;;;21.30;4.65;;;23.60;46.10;;;;;;5031124;28;20024;-68
2022/05/28 07:43:03;;;;;;;15.88;4.22;;;23.30;47.10;;;;;;5029491;28;20088;-68
2022/05/28 07:45:30;;;;;;;16.60;3.83;;;23.20;46.60;;;;;;5031825;28;20112;-68
2022/05/28 07:47:56;;;;;;;21.52;4.57;;;23.10;47.60;;;;;;5031125;28;20041;-68
2022/05/28 07:50:22;;;;;;;17.38;4.20;;;24.70;57.50;;;;;;5043717;28;20033;-68
2022/05/28 07:52:48;;;;;;;15.45;4.10;;;23.00;48.40;;;;;;5031206;28;20033;-67
2022/05/28 07:55:14;;;;;;;20.23;4.13;;;23.00;48.30;;;;;;5032504;28;20120;-68
2022/05/28 07:57:41;;;;;;;15.48;3.67;;;23.00;48.50;;;;;;5038552;28;20128;-67
2022/05/28 08:00:08;;;;;;;22.52;4.13;;;22.90;48.50;;;;;;5030731;28;20880;-70
2022/05/28 08:02:34;;;;;;;14.68;3.50;;;22.90;48.60;;;;;;5039763;28;20380;-68
2022/05/28 08:04:59;;;;;;;16.45;3.38;;;23.00;47.10;;;;;;5041655;28;20475;-69
2022/05/28 08:07:25;;;;;;;13.70;3.40;;;22.90;47.90;;;;;;5042696;28;20067;-68
2022/05/28 08:09:51;;;;;;;14.82;3.30;;;23.00;47.50;;;;;;5029702;28;20033;-67
2022/05/28 08:12:17;;;;;;;15.27;3.50;;;23.00;46.70;;;;;;5046228;28;20037;-68
2022/05/28 08:14:43;;;;;;;17.17;3.97;;;23.00;46.70;;;;;;5052140;28;20025;-67
2022/05/28 08:17:09;;;;;;;14.85;3.50;;;23.10;47.20;;;;;;5041501;28;20049;-68
2022/05/28 08:19:35;;;;;;;13.20;3.35;;;22.40;46.50;;;;;;5036242;28;20038;-67
2022/05/28 08:24:45;;;;;;;16.40;3.58;;;23.30;47.00;;;;;;5027685;28;20409;-67
2022/05/28 08:27:11;;;;;;;16.52;3.30;;;;;;;;;;5047143;28;20492;-68
2022/05/28 08:29:37;;;;;;;14.48;3.10;;;;;;;;;;5042824;28;20444;-67
2022/05/28 08:32:03;;;;;;;13.98;3.25;;;;;;;;;;5045758;28;20377;-68
2022/05/28 08:34:29;;;;;;;16.70;3.55;;;22.60;46.40;;;;;;5030255;28;20028;-68
2022/05/28 08:36:54;;;;;;;17.17;3.30;;;23.80;45.20;;;;;;5034221;28;20041;-68
2022/05/28 08:39:20;;;;;;;13.43;3.10;;;23.60;45.60;;;;;;5044366;28;20053;-68
2022/05/28 08:41:59;;;;;;;14.18;3.38;;;23.80;44.50;;;;;;5041452;28;20045;-67
2022/05/28 08:44:31;;;;;;;10.73;3.35;;;23.90;45.20;;;;;;5034514;28;20040;-67
2022/05/28 08:47:14;;;;;;;11.95;3.30;;;24.00;44.50;;;;;;5038007;28;20653;-68
2022/05/28 08:49:40;;;;;;;16.77;3.47;;;24.00;45.10;;;;;;5045394;28;20052;-67
2022/05/28 08:52:15;;;;;;;14.15;4.05;;;23.80;49.20;;;;;;5038859;28;20373;-68
2022/05/28 08:54:56;;;;;;;16.38;3.83;;;24.20;44.20;;;;;;5034559;28;20033;-68
2022/05/28 08:57:31;;;;;;;13.77;3.28;;;24.40;43.60;;;;;;5048077;28;20060;-68
2022/05/28 09:00:12;;;;;;;14.63;3.53;;;24.60;42.80;;;;;;5038909;28;20032;-68
2022/05/28 09:02:49;;;;;;;11.77;3.58;;;22.20;67.30;;;;;;5033460;28;20064;-67
2022/05/28 09:05:20;;;;;;;11.20;3.13;;;25.10;40.40;;;;;;5035456;28;20511;-67
2022/05/28 09:07:46;;;;;;;12.75;3.13;;;25.30;40.60;;;;;;5030993;28;20505;-68
2022/05/28 09:10:13;;;;;;;12.18;3.63;;;25.30;40.80;;;;;;5042322;28;20032;-68
2022/05/28 09:12:52;;;;;;;14.10;3.22;;;25.50;40.00;;;;;;5031611;28;20021;-68
2022/05/28 09:15:18;;;;;;;11.50;3.05;;;25.60;40.10;;;;;;5039707;28;20089;-68
2022/05/28 09:17:47;;;;;;;27.50;3.70;;;25.80;40.20;;;;;;5041352;28;20041;-67
2022/05/28 09:20:21;;;;;;;11.85;2.70;;;26.10;38.90;;;;;;5036728;28;20526;-68
2022/05/28 09:22:47;;;;;;;12.85;2.83;;;;;;;;;;5035115;28;20037;-68
2022/05/28 09:25:17;;;;;;;13.77;3.05;;;26.70;36.20;;;;;;5039602;28;20119;-68
2022/05/28 09:27:46;;;;;;;14.55;2.72;;;26.90;35.60;;;;;;5037742;28;20040;-66
2022/05/28 09:30:45;;;;;;;13.48;2.65;;;27.10;35.10;;;;;;5032994;28;20029;-68
2022/05/28 09:33:41;;;;;;;15.48;3.17;;;27.50;34.00;;;;;;5029660;28;20091;-67
2022/05/28 09:36:17;;;;;;;14.32;3.00;;;27.50;34.60;;;;;;5042772;28;20082;-69
2022/05/28 09:39:05;;;;;;;13.63;3.05;;;27.80;33.80;;;;;;5034298;28;20071;-67
2022/05/28 09:41:37;;;;;;;15.93;3.75;;;28.60;37.80;;;;;;5042742;28;20072;-67
2022/05/28 09:44:40;;;;;;;16.83;3.20;;;28.40;31.10;;;;;;5040594;28;20079;-67
2022/05/28 09:47:09;;;;;;;10.77;2.70;;;28.70;30.70;;;;;;5038155;28;20052;-68
2022/05/28 09:49:49;;;;;;;21.13;3.33;;;27.80;49.40;;;;;;5037280;28;20108;-67
2022/05/28 09:52:22;;;;;;;10.73;2.80;;;29.10;30.50;;;;;;5041557;28;20013;-68
2022/05/28 09:54:48;;;;;;;14.20;3.30;;;;;;;;;;5032498;28;20044;-67
2022/05/28 09:57:23;;;;;;;18.83;3.10;;;31.40;48.10;;;;;;5050217;28;20049;-68
2022/05/28 09:59:59;;;;;;;13.77;3.08;;;30.30;28.40;;;;;;5040299;28;20028;-67
2022/05/28 10:04:28;;;;;;;16.80;5.90;;;30.60;27.30;;;;;;5038360;28;20080;-67
2022/05/28 10:05:41;;;;;;;29.73;23.98;;;30.70;26.60;;;;;;5043364;28;20086;-68
2022/05/28 10:08:12;;;;;;;13.95;6.57;;;30.90;26.50;;;;;;5043961;28;20030;-68
2022/05/28 10:10:39;;;;;;;43.38;34.75;;;;;;;;;;5035990;28;20044;-70
2022/05/28 10:13:13;;;;;;;51.97;46.53;;;33.00;45.50;;;;;;5046628;28;20110;-70
2022/05/28 10:15:43;;;;;;;41.22;33.58;;;32.20;31.50;;;;;;5032135;28;20056;-70
2022/05/28 10:18:15;;;;;;;41.90;37.53;;;32.30;24.70;;;;;;5041633;28;20041;-69
2022/05/28 10:20:41;;;;;;;17.98;9.23;;;;;;;;;;5037747;28;20029;-70
2022/05/28 10:23:21;;;;;;;50.95;6.20;;;32.90;24.00;;;;;;5048610;28;20025;-70
2022/05/28 10:25:50;;;;;;;72.95;64.22;;;33.40;23.80;;;;;;5043668;28;20111;-70
2022/05/28 10:28:44;;;;;;;40.15;32.88;;;35.30;28.20;;;;;;5042529;28;20107;-69
2022/05/28 10:31:16;;;;;;;114.47;102.15;;;34.30;22.00;;;;;;5031961;28;20025;-70
2022/05/28 10:33:44;;;;;;;42.17;28.50;;;34.80;22.20;;;;;;5045684;28;20542;-69
2022/05/28 10:36:15;;;;;;;518.85;296.13;;;35.10;22.00;;;;;;5040651;28;20041;-69
2022/05/28 10:38:41;;;;;;;24.25;8.23;;;33.70;22.60;;;;;;5034551;28;20025;-70
2022/05/28 10:41:26;;;;;;;12.77;4.63;;;36.60;35.40;;;;;;5035764;28;20377;-68
2022/05/28 10:43:52;;;;;;;14.68;6.22;;;;;;;;;;5041804;28;20021;-70
2022/05/28 10:46:18;;;;;;;28.67;16.05;;;;;;;;;;5043028;28;20029;-68
2022/05/28 10:49:11;;;;;;;13.38;5.68;;;36.50;20.30;;;;;;5043803;28;20036;-69
2022/05/28 10:51:52;;;;;;;25.20;16.17;;;36.60;20.70;;;;;;5035916;28;20036;-69
2022/05/28 10:54:30;;;;;;;42.72;32.13;;;37.80;31.50;;;;;;5054092;28;20741;-69
2022/05/28 10:57:31;;;;;;;225.43;188.70;;;37.10;20.00;;;;;;5034191;28;20098;-70
2022/05/28 11:00:10;;;;;;;22.00;10.15;;;37.40;19.70;;;;;;5037678;28;20025;-70
2022/05/28 11:03:08;;;;;;;118.38;100.88;;;37.90;32.30;;;;;;5034379;28;20034;-70
2022/05/28 11:05:34;;;;;;;33.60;28.73;;;;;;;;;;5041690;28;20025;-70
2022/05/28 11:08:16;;;;;;;20.33;14.07;;;38.70;29.60;;;;;;5035352;28;20036;-69
2022/05/28 11:10:52;;;;;;;10.35;3.20;;;38.80;28.80;;;;;;5042737;28;20025;-69
2022/05/28 11:13:42;;;;;;;8.52;2.05;;;38.00;18.50;;;;;;5045027;28;20032;-69
2022/05/28 11:16:08;;;;;;;11.02;2.45;;;;;;;;;;5042318;28;20025;-69
2022/05/28 11:19:05;;;;;;;10.70;2.60;;;38.00;19.10;;;;;;5040945;28;20058;-69
2022/05/28 11:22:04;;;;;;;9.73;2.30;;;38.20;18.90;;;;;;5037554;28;20029;-69
2022/05/28 11:24:46;;;;;;;;;;;38.50;18.70;;;;;;5030312;28;20098;-68
2022/05/28 11:27:24;;;;;;;14.18;2.63;;;;;;;;;;5040629;28;20364;-68
2022/05/28 11:30:12;;;;;;;11.30;2.50;;;38.70;28.30;;;;;;5039898;28;20128;-70
2022/05/28 11:32:38;;;;;;;10.50;2.40;;;;;;;;;;5047909;28;20029;-69
2022/05/28 11:35:24;;;;;;;10.80;2.47;;;38.30;18.60;;;;;;5039945;28;20029;-70
2022/05/28 11:37:57;;;;;;;9.55;2.30;;;38.30;18.60;;;;;;5036640;28;24307;-70
2022/05/28 11:40:23;;;;;;;9.13;2.30;;;;;;;;;;5036166;28;20025;-69
2022/05/28 11:43:00;;;;;;;7.13;1.80;;;38.70;18.50;;;;;;5039318;28;20064;-69
2022/05/28 11:45:40;;;;;;;10.32;2.63;;;39.00;19.10;;;;;;5057501;28;20032;-70
2022/05/28 11:48:26;;;;;;;;;;;39.00;19.40;;;;;;5023646;28;20049;-69
2022/05/28 11:51:28;;;;;;;12.90;2.20;;;39.90;28.50;;;;;;5017913;28;19984;-69
2022/05/28 11:53:56;;;;;;;11.52;2.10;;;38.80;27.00;;;;;;5023699;28;20038;-68
2022/05/28 11:56:30;;;;;;;8.77;1.70;;;39.90;16.60;;;;;;5004398;28;20058;-69
2022/05/28 11:59:05;;;;;;;8.45;1.80;;;40.20;16.60;;;;;;5001215;28;20026;-69
2022/05/28 12:01:51;;;;;;;7.22;1.92;;;40.50;16.40;;;;;;4990949;28;20790;-68
2022/05/28 12:04:17;;;;;;;7.13;2.00;;;41.30;22.40;;;;;;5009212;28;20045;-69
2022/05/28 12:06:56;;;;;;;8.38;1.95;;;41.70;27.90;;;;;;5005926;28;20593;-69
2022/05/28 12:09:26;;;;;;;8.65;2.28;;;40.90;28.70;;;;;;5019947;28;20060;-69
2022/05/28 12:12:26;;;;;;;8.38;2.13;;;41.70;16.10;;;;;;5004073;28;20056;-69
2022/05/28 12:15:21;;;;;;;8.50;1.73;;;42.10;20.50;;;;;;5010194;28;20050;-69
2022/05/28 12:18:07;;;;;;;6.75;1.70;;;41.90;14.90;;;;;;5004545;28;20618;-69
2022/05/28 12:20:50;;;;;;;8.50;2.33;;;41.60;14.50;;;;;;5007546;28;20076;-67
2022/05/28 12:23:32;;;;;;;10.93;1.80;;;41.20;15.20;;;;;;4993600;28;20075;-68
2022/05/28 12:26:01;;;;;;;7.25;1.85;;;;;;;;;;5001640;28;20038;-68
2022/05/28 12:28:32;;;;;;;10.82;3.03;;;41.20;19.20;;;;;;5000858;28;20041;-69
2022/05/28 12:31:02;;;;;;;9.95;1.90;;;41.00;18.10;;;;;;4994640;28;20038;-69
2022/05/28 12:33:31;;;;;;;9.13;2.00;;;41.00;15.80;;;;;;5010099;28;20080;-69
2022/05/28 12:36:26;;;;;;;8.38;2.00;;;41.30;29.10;;;;;;5007960;28;20068;-69
2022/05/28 12:38:58;;;;;;;12.60;2.58;;;41.90;23.70;;;;;;5006283;28;20405;-68
2022/05/28 12:41:37;;;;;;;7.53;1.58;;;41.10;15.70;;;;;;5005058;28;20444;-68
2022/05/28 12:44:21;;;;;;;6.45;1.80;;;41.00;15.60;;;;;;5006294;28;20053;-67
2022/05/28 12:46:54;;;;;;;8.27;1.88;;;42.50;16.40;;;;;;5009224;28;20043;-68
2022/05/28 12:49:31;;;;;;;11.32;2.28;;;41.50;31.10;;;;;;5007094;28;20076;-67
2022/05/28 12:52:15;;;;;;;8.93;1.80;;;41.10;15.20;;;;;;5010532;28;20109;-67
2022/05/28 12:54:42;;;;;;;10.80;1.95;;;41.00;15.70;;;;;;5005164;28;20065;-67
2022/05/28 12:57:27;;;;;;;8.20;2.03;;;40.20;30.40;;;;;;5037109;28;20057;-67
2022/05/28 13:00:04;;;;;;;6.57;1.58;;;40.50;15.40;;;;;;5043868;28;20033;-67
2022/05/28 13:02:41;;;;;;;9.95;2.15;;;40.00;15.90;;;;;;5035511;28;20029;-67
2022/05/28 13:05:34;;;;;;;9.68;1.85;;;39.30;16.20;;;;;;5031261;28;20045;-68
2022/05/28 13:08:05;;;;;;;6.78;1.60;;;38.90;17.00;;;;;;5031989;28;20769;-67